Time;durP1;ratioP1;P1;durP2;ratioP2;P2;SDS_P1;SDS_P2;PMS_P1;PMS_P2;Temp;Humidity;BMP_temperature;BMP_pressure;BME280_temperature;BME280_humidity;BME280_pressure;Samples;Min_cycle;Max_cycle;Signal;HPM_P1;HPM_P2
2023/06/02 00:03:19;;;;;;;6.90;2.20;;;;;;;;;;5007527;28;20223;-70
2023/06/02 00:05:46;;;;;;;8.40;2.40;;;;;;;;;;4991117;28;20248;-70
2023/06/02 00:08:11;;;;;;;5.65;3.03;;;;;;;;;;4992543;28;20645;-71
2023/06/02 00:10:37;;;;;;;7.47;2.65;;;;;;;;;;5014537;28;20187;-71
2023/06/02 00:13:02;;;;;;;11.60;2.55;;;;;;;;;;5008013;28;20197;-71
2023/06/02 00:15:31;;;;;;;7.60;2.85;;;;;;;;;;5010552;28;20186;-71
2023/06/02 00:17:56;;;;;;;7.43;2.00;;;;;;;;;;4983166;28;20692;-71
2023/06/02 00:20:26;;;;;;;11.73;2.97;;;;;;;;;;5010389;28;20258;-71
2023/06/02 00:22:51;;;;;;;7.07;2.72;;;;;;;;;;5009549;28;20206;-71
2023/06/02 00:25:16;;;;;;;8.03;2.47;;;;;;;;;;5009113;28;20186;-71
2023/06/02 00:27:41;;;;;;;8.77;2.58;;;;;;;;;;4993326;28;20600;-71
2023/06/02 00:30:07;;;;;;;7.50;2.43;;;;;;;;;;5010286;28;20644;-71
2023/06/02 00:32:32;;;;;;;12.33;2.83;;;;;;;;;;4989479;28;20206;-70
2023/06/02 00:34:57;;;;;;;6.80;2.73;;;;;;;;;;5010155;28;20191;-71
2023/06/02 00:37:22;;;;;;;5.80;2.28;;;;;;;;;;4992213;28;20231;-71
2023/06/02 00:39:47;;;;;;;7.57;2.88;;;;;;;;;;4993219;28;20636;-71
2023/06/02 00:42:13;;;;;;;8.25;2.40;;;;;;;;;;5010918;28;20199;-70
2023/06/02 00:44:38;;;;;;;9.77;2.50;;;;;;;;;;5010590;28;20182;-71
2023/06/02 00:47:03;;;;;;;7.13;2.60;;;;;;;;;;5006920;28;20185;-71
2023/06/02 00:49:28;;;;;;;7.47;2.35;;;;;;;;;;4992571;28;20187;-71
2023/06/02 00:51:54;;;;;;;4.77;2.40;;;;;;;;;;5010989;28;20195;-70
2023/06/02 00:54:19;;;;;;;14.13;2.43;;;;;;;;;;5010479;28;20214;-71
2023/06/02 00:56:45;;;;;;;6.97;2.53;;;;;;;;;;5009115;28;20278;-71
2023/06/02 00:59:10;;;;;;;8.88;2.58;;;;;;;;;;4992237;28;20557;-70
2023/06/02 01:01:35;;;;;;;5.27;2.97;;;;;;;;;;5010214;28;20285;-71
2023/06/02 01:04:01;;;;;;;9.00;2.43;;;;;;;;;;5009982;28;20563;-71
2023/06/02 01:06:31;;;;;;;23.60;3.63;;;;;;;;;;5009632;28;20194;-71
2023/06/02 01:08:58;;;;;;;3.78;1.95;;;;;;;;;;5006836;28;20194;-71
2023/06/02 01:11:23;;;;;;;11.00;2.53;;;;;;;;;;5010096;28;20576;-71
2023/06/02 01:13:49;;;;;;;7.60;2.53;;;;;;;;;;5005303;28;20175;-71
2023/06/02 01:16:14;;;;;;;8.40;2.57;;;;;;;;;;5009973;28;20668;-71
2023/06/02 01:18:42;;;;;;;12.40;3.57;;;;;;;;;;5001438;28;20175;-71
2023/06/02 01:21:09;;;;;;;9.17;3.03;;;;;;;;;;5007388;28;20305;-71
2023/06/02 01:23:35;;;;;;;12.38;2.47;;;;;;;;;;5010111;28;20390;-70
2023/06/02 01:26:01;;;;;;;9.82;2.95;;;;;;;;;;5009389;28;20172;-70
2023/06/02 01:28:26;;;;;;;12.07;3.10;;;;;;;;;;5009635;28;20175;-70
2023/06/02 01:31:04;;;;;;;8.32;2.92;;;;;;;;;;4995204;28;20171;-71
2023/06/02 01:33:29;;;;;;;8.50;2.33;;;;;;;;;;5011283;28;20209;-71
2023/06/02 01:35:58;;;;;;;8.80;2.95;;;;;;;;;;5011561;28;20167;-71
2023/06/02 01:38:24;;;;;;;11.50;3.30;;;;;;;;;;5012219;28;20297;-71
2023/06/02 01:40:50;;;;;;;10.48;2.78;;;;;;;;;;5013249;28;20266;-71
2023/06/02 01:43:17;;;;;;;5.67;2.90;;;;;;;;;;5013198;28;20237;-71
2023/06/02 01:45:42;;;;;;;5.45;3.08;;;;;;;;;;4994402;28;20175;-70
2023/06/02 01:48:08;;;;;;;13.70;3.03;;;;;;;;;;4993358;28;20190;-71
2023/06/02 01:50:33;;;;;;;8.52;3.67;;;;;;;;;;5013317;28;20708;-71
2023/06/02 01:52:59;;;;;;;6.80;3.10;;;;;;;;;;4994223;28;20302;-71
2023/06/02 01:55:24;;;;;;;9.20;2.65;;;;;;;;;;5011975;28;20288;-71
2023/06/02 01:57:49;;;;;;;6.13;2.58;;;;;;;;;;5010853;28;20199;-71
2023/06/02 02:00:15;;;;;;;11.13;2.67;;;;;;;;;;5011771;28;20225;-71
2023/06/02 02:02:40;;;;;;;7.43;2.40;;;;;;;;;;4992191;28;20704;-71
2023/06/02 02:05:06;;;;;;;3.97;1.70;;;;;;;;;;5012245;28;20644;-71
2023/06/02 02:07:31;;;;;;;5.75;2.28;;;;;;;;;;5011473;28;20187;-71
2023/06/02 02:09:56;;;;;;;5.55;2.20;;;;;;;;;;4994351;28;20182;-71
2023/06/02 02:12:22;;;;;;;5.75;2.08;;;;;;;;;;5012366;28;20218;-71
2023/06/02 02:14:50;;;;;;;5.57;2.10;;;;;;;;;;5014831;28;20185;-70
2023/06/02 02:17:16;;;;;;;6.80;1.90;;;;;;;;;;5012585;28;20203;-71
2023/06/02 02:19:42;;;;;;;9.68;3.10;;;;;;;;;;4988643;28;20233;-70
2023/06/02 02:22:07;;;;;;;8.53;3.17;;;;;;;;;;4994002;28;20203;-71
2023/06/02 02:24:32;;;;;;;6.75;2.40;;;;;;;;;;5011636;28;20185;-71
2023/06/02 02:26:58;;;;;;;8.27;2.05;;;;;;;;;;5011845;28;20187;-70
2023/06/02 02:29:23;;;;;;;3.97;1.52;;;;;;;;;;5013047;28;20186;-70
2023/06/02 02:31:48;;;;;;;11.75;3.03;;;;;;;;;;5009810;28;20198;-71
2023/06/02 02:34:14;;;;;;;4.53;2.00;;;;;;;;;;5012348;28;20205;-71
2023/06/02 02:36:39;;;;;;;9.37;2.20;;;;;;;;;;5009190;28;20379;-70
2023/06/02 02:39:05;;;;;;;3.87;1.80;;;;;;;;;;4993073;28;20567;-71
2023/06/02 02:41:30;;;;;;;6.77;2.13;;;;;;;;;;4994414;28;20225;-70
2023/06/02 02:43:55;;;;;;;7.95;2.08;;;;;;;;;;5012989;28;20170;-71
2023/06/02 02:46:21;;;;;;;3.10;1.77;;;;;;;;;;5008728;28;20179;-71
2023/06/02 02:48:46;;;;;;;8.60;2.00;;;;;;;;;;5012097;28;20171;-71
2023/06/02 02:51:11;;;;;;;5.47;2.47;;;;;;;;;;5012239;28;20210;-71
2023/06/02 02:53:36;;;;;;;5.65;1.70;;;;;;;;;;5012556;28;20178;-71
2023/06/02 02:56:02;;;;;;;4.00;2.15;;;;;;;;;;5011553;28;20621;-71
2023/06/02 02:58:27;;;;;;;7.18;2.95;;;;;;;;;;5010393;28;20213;-71
2023/06/02 03:00:52;;;;;;;5.60;2.20;;;;;;;;;;4984602;28;20179;-71
2023/06/02 03:03:17;;;;;;;7.15;3.08;;;;;;;;;;5011575;28;20282;-71
2023/06/02 03:05:45;;;;;;;6.77;1.50;;;;;;;;;;5010649;28;20171;-70
2023/06/02 03:08:12;;;;;;;6.27;2.13;;;;;;;;;;4993381;28;20183;-71
2023/06/02 03:10:37;;;;;;;7.10;2.53;;;;;;;;;;4993172;28;20194;-71
2023/06/02 03:13:02;;;;;;;4.72;2.20;;;;;;;;;;4992870;28;20214;-70
2023/06/02 03:15:28;;;;;;;6.40;2.00;;;;;;;;;;5010446;28;20187;-70
2023/06/02 03:17:55;;;;;;;6.10;1.80;;;;;;;;;;5011170;28;20242;-71
2023/06/02 03:20:21;;;;;;;4.93;1.77;;;;;;;;;;4995314;28;20555;-71
2023/06/02 03:22:47;;;;;;;7.72;2.03;;;;;;;;;;5015348;28;20675;-70
2023/06/02 03:25:12;;;;;;;3.47;1.80;;;;;;;;;;5012258;28;20171;-70
2023/06/02 03:27:38;;;;;;;8.23;2.20;;;;;;;;;;4993205;28;20186;-70
2023/06/02 03:30:03;;;;;;;7.27;2.37;;;;;;;;;;4992749;28;20183;-70
2023/06/02 03:32:28;;;;;;;15.57;2.27;;;;;;;;;;5013449;28;20282;-70
2023/06/02 03:34:53;;;;;;;5.73;1.57;;;;;;;;;;5010100;28;20588;-70
2023/06/02 03:37:19;;;;;;;7.23;1.60;;;;;;;;;;5011724;28;20207;-70
2023/06/02 03:39:44;;;;;;;5.93;1.53;;;;;;;;;;4988925;28;20210;-70
2023/06/02 03:42:09;;;;;;;4.90;2.27;;;;;;;;;;5011345;28;20249;-70
2023/06/02 03:44:34;;;;;;;7.80;2.07;;;;;;;;;;5010791;28;20182;-70
2023/06/02 03:47:00;;;;;;;7.07;1.87;;;;;;;;;;5010016;28;20253;-69
2023/06/02 03:49:27;;;;;;;7.73;2.00;;;;;;;;;;5008075;28;20237;-70
2023/06/02 03:51:53;;;;;;;6.07;1.83;;;;;;;;;;5000911;28;20277;-70
2023/06/02 03:54:18;;;;;;;8.47;2.20;;;;;;;;;;5010786;28;20277;-70
2023/06/02 03:56:43;;;;;;;8.20;2.13;;;;;;;;;;5008425;28;20191;-70
2023/06/02 03:59:08;;;;;;;9.67;2.73;;;;;;;;;;5010204;28;20183;-71
2023/06/02 04:01:35;;;;;;;8.17;1.87;;;;;;;;;;5010862;28;20195;-70
2023/06/02 04:04:00;;;;;;;4.77;1.63;;;;;;;;;;5010466;28;20179;-70
2023/06/02 04:06:25;;;;;;;5.87;1.90;;;;;;;;;;5010522;28;20428;-70
2023/06/02 04:08:51;;;;;;;4.03;1.73;;;;;;;;;;5010107;28;20680;-70
2023/06/02 04:11:16;;;;;;;10.57;2.35;;;;;;;;;;5009464;28;20230;-71
2023/06/02 04:13:41;;;;;;;5.63;1.60;;;;;;;;;;5010178;28;20182;-70
2023/06/02 04:16:07;;;;;;;5.63;2.03;;;;;;;;;;4990946;28;20266;-70
2023/06/02 04:18:35;;;;;;;8.67;2.10;;;;;;;;;;5010259;28;20181;-70
2023/06/02 04:21:01;;;;;;;4.70;1.87;;;;;;;;;;5004948;28;20267;-70
2023/06/02 04:23:26;;;;;;;5.50;1.97;;;;;;;;;;4992050;28;20265;-70
2023/06/02 04:25:51;;;;;;;10.53;2.40;;;;;;;;;;5009003;28;20170;-71
2023/06/02 04:28:19;;;;;;;6.93;2.10;;;;;;;;;;5010554;28;20170;-70
2023/06/02 04:30:44;;;;;;;6.07;1.90;;;;;;;;;;5006857;28;20740;-70
2023/06/02 04:33:09;;;;;;;10.47;2.03;;;;;;;;;;5009939;28;20297;-70
2023/06/02 04:35:35;;;;;;;5.70;1.70;;;;;;;;;;5008763;28;20185;-70
2023/06/02 04:38:00;;;;;;;7.40;2.07;;;;;;;;;;5008381;28;20206;-71
2023/06/02 04:40:25;;;;;;;6.57;1.95;;;;;;;;;;5010075;28;20183;-71
2023/06/02 04:42:50;;;;;;;5.20;1.47;;;;;;;;;;5012469;28;20614;-71
2023/06/02 04:45:16;;;;;;;7.57;1.80;;;;;;;;;;5008379;28;20190;-71
2023/06/02 04:47:42;;;;;;;5.13;1.73;;;;;;;;;;5009294;28;20269;-71
2023/06/02 04:50:09;;;;;;;7.82;1.95;;;;;;;;;;5011896;28;20290;-71
2023/06/02 04:52:34;;;;;;;7.35;2.15;;;;;;;;;;4987086;28;20207;-71
2023/06/02 04:55:00;;;;;;;8.27;2.00;;;;;;;;;;4989930;28;20277;-72
2023/06/02 04:57:25;;;;;;;10.65;1.92;;;;;;;;;;5010619;28;20631;-71
2023/06/02 04:59:51;;;;;;;6.13;3.53;;;;;;;;;;5010545;28;20171;-71
2023/06/02 05:02:16;;;;;;;5.43;1.77;;;;;;;;;;4992768;28;20221;-71
2023/06/02 05:04:42;;;;;;;6.80;2.38;;;;;;;;;;5014103;28;20175;-71
2023/06/02 05:07:07;;;;;;;3.67;1.60;;;;;;;;;;5014118;28;20233;-71
2023/06/02 05:09:32;;;;;;;7.65;2.08;;;;;;;;;;5010750;28;20186;-71
2023/06/02 05:11:59;;;;;;;4.60;1.40;;;;;;;;;;5013864;28;20692;-71
2023/06/02 05:14:24;;;;;;;11.27;2.38;;;;;;;;;;5014061;28;20561;-71
2023/06/02 05:16:49;;;;;;;6.60;2.20;;;;;;;;;;5013120;28;20205;-71
2023/06/02 05:19:14;;;;;;;4.05;2.25;;;;;;;;;;5013852;28;20189;-71
2023/06/02 05:21:40;;;;;;;4.25;1.85;;;;;;;;;;4996562;28;20264;-71
2023/06/02 05:24:05;;;;;;;7.15;2.08;;;;;;;;;;5013537;28;20186;-71
2023/06/02 05:26:30;;;;;;;12.00;2.67;;;;;;;;;;5010788;28;20675;-71
2023/06/02 05:28:57;;;;;;;4.60;1.95;;;;;;;;;;5012520;28;20198;-71
2023/06/02 05:31:22;;;;;;;5.45;1.48;;;;;;;;;;4994518;28;20218;-71
2023/06/02 05:33:47;;;;;;;8.18;2.47;;;;;;;;;;5012540;28;20183;-71
2023/06/02 05:36:13;;;;;;;6.18;2.08;;;;;;;;;;5011672;28;20246;-71
2023/06/02 05:38:42;;;;;;;14.63;2.22;;;;;;;;;;5011563;28;20213;-71
2023/06/02 05:41:07;;;;;;;3.35;1.20;;;;;;;;;;5011330;28;20207;-71
2023/06/02 05:43:32;;;;;;;7.75;1.95;;;;;;;;;;5013132;28;20167;-71
2023/06/02 05:45:58;;;;;;;4.38;2.03;;;;;;;;;;5012590;28;20559;-71
2023/06/02 05:48:23;;;;;;;8.52;1.60;;;;;;;;;;5009128;28;20186;-71
2023/06/02 05:50:48;;;;;;;5.45;1.63;;;;;;;;;;5012764;28;20187;-71
2023/06/02 05:53:14;;;;;;;5.72;1.60;;;;;;;;;;5001782;28;20190;-71
2023/06/02 05:55:39;;;;;;;7.63;1.63;;;;;;;;;;5012403;28;20202;-71
2023/06/02 05:58:04;;;;;;;5.38;1.90;;;;;;;;;;4995075;28;20206;-71
2023/06/02 06:00:29;;;;;;;5.45;2.03;;;;;;;;;;5006732;28;20188;-71
2023/06/02 06:02:54;;;;;;;15.77;2.47;;;;;;;;;;5009244;28;21198;-69
2023/06/02 06:05:20;;;;;;;8.07;1.55;;;;;;;;;;5010217;28;20258;-69
2023/06/02 06:07:45;;;;;;;5.85;1.80;;;;;;;;;;5011562;28;20175;-69
2023/06/02 06:10:10;;;;;;;9.82;1.92;;;;;;;;;;5011549;28;20202;-70
2023/06/02 06:12:35;;;;;;;5.32;2.20;;;;;;;;;;5010187;28;20260;-69
2023/06/02 06:15:00;;;;;;;7.10;1.65;;;;;;;;;;5012418;28;20218;-70
2023/06/02 06:17:26;;;;;;;9.93;2.05;;;;;;;;;;5009870;28;20678;-70
2023/06/02 06:19:51;;;;;;;5.80;2.05;;;;;;;;;;5010585;28;20621;-70
2023/06/02 06:22:16;;;;;;;6.55;1.50;;;;;;;;;;5011007;28;20218;-70
2023/06/02 06:24:41;;;;;;;5.70;1.88;;;;;;;;;;4994299;28;20175;-70
2023/06/02 06:27:07;;;;;;;8.52;1.90;;;;;;;;;;5011660;28;20539;-70
2023/06/02 06:29:32;;;;;;;8.48;3.55;;;;;;;;;;5012910;28;20708;-69
2023/06/02 06:31:58;;;;;;;6.22;2.10;;;;;;;;;;5011767;28;20209;-69
2023/06/02 06:34:23;;;;;;;7.03;2.58;;;;;;;;;;5012636;28;20179;-70
2023/06/02 06:36:48;;;;;;;8.73;1.83;;;;;;;;;;5011823;28;20288;-70
2023/06/02 06:39:13;;;;;;;10.82;1.95;;;;;;;;;;5008793;28;20189;-70
2023/06/02 06:41:40;;;;;;;8.05;2.08;;;;;;;;;;5011596;28;20202;-70
2023/06/02 06:44:05;;;;;;;5.53;1.73;;;;;;;;;;5011619;28;20183;-69
2023/06/02 06:46:30;;;;;;;6.93;2.45;;;;;;;;;;4992716;28;20182;-69
2023/06/02 06:48:56;;;;;;;10.48;2.05;;;;;;;;;;5011242;28;20186;-70
2023/06/02 06:51:21;;;;;;;8.10;2.53;;;;;;;;;;5010614;28;20202;-69
2023/06/02 06:53:46;;;;;;;6.35;1.90;;;;;;;;;;5012731;28;20203;-70
2023/06/02 06:56:12;;;;;;;6.38;1.58;;;;;;;;;;5011217;28;20178;-70
2023/06/02 06:58:37;;;;;;;7.22;2.00;;;;;;;;;;4995187;28;20198;-69
2023/06/02 07:01:02;;;;;;;5.95;1.38;;;;;;;;;;5008147;28;20179;-69
2023/06/02 07:03:28;;;;;;;6.68;2.05;;;;;;;;;;4995198;28;20238;-70
2023/06/02 07:05:53;;;;;;;14.95;2.58;;;;;;;;;;4994326;28;20183;-70
2023/06/02 07:08:18;;;;;;;8.20;1.85;;;;;;;;;;5012248;28;20269;-69
2023/06/02 07:10:43;;;;;;;3.95;1.73;;;;;;;;;;5010578;28;20183;-70
2023/06/02 07:13:09;;;;;;;12.95;2.30;;;;;;;;;;4991133;28;20195;-70
2023/06/02 07:15:34;;;;;;;9.55;2.63;;;;;;;;;;5011643;28;20206;-69
2023/06/02 07:18:00;;;;;;;3.92;2.10;;;;;;;;;;5011695;28;20198;-69
2023/06/02 07:20:25;;;;;;;6.78;1.85;;;;;;;;;;4986751;28;20254;-69
2023/06/02 07:22:50;;;;;;;6.25;2.13;;;;;;;;;;4989016;28;20601;-69
2023/06/02 07:25:15;;;;;;;7.40;2.17;;;;;;;;;;5005989;28;20254;-70
2023/06/02 07:27:41;;;;;;;7.82;2.63;;;;;;;;;;5012481;28;20171;-71
2023/06/02 07:30:06;;;;;;;8.40;1.70;;;;;;;;;;4990969;28;20178;-70
2023/06/02 07:32:32;;;;;;;8.27;1.63;;;;;;;;;;5003579;28;20199;-70
2023/06/02 07:34:57;;;;;;;5.70;1.80;;;;;;;;;;5011381;28;20696;-70
2023/06/02 07:37:22;;;;;;;8.48;3.17;;;;;;;;;;4992754;28;20203;-70
2023/06/02 07:39:47;;;;;;;7.25;1.85;;;;;;;;;;5011324;28;20171;-70
2023/06/02 07:42:13;;;;;;;5.50;2.05;;;;;;;;;;5015553;28;20222;-70
2023/06/02 07:44:38;;;;;;;6.43;1.42;;;;;;;;;;5010290;28;20185;-69
2023/06/02 07:47:04;;;;;;;6.63;1.92;;;;;;;;;;5002715;28;20257;-70
2023/06/02 07:49:29;;;;;;;2.30;1.27;;;;;;;;;;5000878;28;20174;-70
2023/06/02 07:51:54;;;;;;;9.02;2.35;;;;;;;;;;5010706;28;20665;-69
2023/06/02 07:54:20;;;;;;;6.88;1.45;;;;;;;;;;5009954;28;20711;-70
2023/06/02 07:56:45;;;;;;;8.30;2.00;;;;;;;;;;5006113;28;20211;-69
2023/06/02 07:59:12;;;;;;;9.07;1.70;;;;;;;;;;4991361;28;20263;-69
2023/06/02 08:01:37;;;;;;;3.78;1.60;;;;;;;;;;4995679;28;20217;-69
2023/06/02 08:04:02;;;;;;;6.82;2.15;;;;;;;;;;5005394;28;20191;-69
2023/06/02 08:06:27;;;;;;;10.00;2.17;;;;;;;;;;5005411;28;20249;-69
2023/06/02 08:08:53;;;;;;;10.00;1.75;;;;;;;;;;5005817;28;20182;-69
2023/06/02 08:11:18;;;;;;;6.00;1.45;;;;;;;;;;5008232;28;20686;-70
2023/06/02 08:13:44;;;;;;;6.55;3.58;;;;;;;;;;5009454;28;20167;-69
2023/06/02 08:16:09;;;;;;;7.13;2.20;;;;;;;;;;5010732;28;20672;-69
2023/06/02 08:18:34;;;;;;;10.45;2.15;;;;;;;;;;5011038;28;20215;-69
2023/06/02 08:21:00;;;;;;;8.80;1.90;;;;;;;;;;5005407;28;20183;-69
2023/06/02 08:23:25;;;;;;;8.90;1.95;;;;;;;;;;5006051;28;20433;-69
2023/06/02 08:25:53;;;;;;;8.23;2.53;;;;;;;;;;4991275;28;20201;-69
2023/06/02 08:28:24;;;;;;;8.55;2.22;;;;;;;;;;5009834;28;20178;-69
2023/06/02 08:30:51;;;;;;;5.13;2.65;;;;;;;;;;4990141;28;20179;-69
2023/06/02 08:33:17;;;;;;;8.75;2.67;;;;;;;;;;5007739;28;20187;-69
2023/06/02 08:35:42;;;;;;;8.05;2.45;;;;;;;;;;4992829;28;20167;-68
2023/06/02 08:38:07;;;;;;;8.68;2.15;;;;;;;;;;4991087;28;20202;-69
2023/06/02 08:40:37;;;;;;;6.72;1.85;;;;;;;;;;5015353;28;20640;-70
2023/06/02 08:43:03;;;;;;;6.45;1.80;;;;;;;;;;4993716;28;20202;-70
2023/06/02 08:45:29;;;;;;;8.75;2.67;;;;;;;;;;5006776;28;20275;-69
2023/06/02 08:47:56;;;;;;;8.00;1.75;;;;;;;;;;4994295;28;20274;-71
2023/06/02 08:50:23;;;;;;;4.75;1.55;;;;;;;;;;5011207;28;20630;-70
2023/06/02 08:52:50;;;;;;;11.73;2.80;;;;;;;;;;5015210;28;20190;-69
2023/06/02 08:55:15;;;;;;;7.53;2.15;;;;;;;;;;4997125;28;20621;-69
2023/06/02 08:57:40;;;;;;;5.70;2.05;;;;;;;;;;5012735;28;20289;-70
2023/06/02 09:00:06;;;;;;;4.40;2.17;;;;;;;;;;5006828;28;20177;-68
2023/06/02 09:02:31;;;;;;;11.57;1.80;;;;;;;;;;5013870;28;20205;-69
2023/06/02 09:04:58;;;;;;;7.10;2.03;;;;;;;;;;5013708;28;20257;-69
2023/06/02 09:07:23;;;;;;;7.38;2.47;;;;;;;;;;5014415;28;20179;-69
2023/06/02 09:09:51;;;;;;;8.18;2.00;;;;;;;;;;5012505;28;20187;-71
2023/06/02 09:12:17;;;;;;;15.45;2.63;;;;;;;;;;5013503;28;20207;-69
2023/06/02 09:14:43;;;;;;;3.80;2.13;;;;;;;;;;4994993;28;20186;-69
2023/06/02 09:17:25;;;;;;;7.28;1.77;;;;;;;;;;4993327;28;20672;-68
2023/06/02 09:19:51;;;;;;;5.53;1.70;;;;;;;;;;5004230;28;20175;-70
2023/06/02 09:22:16;;;;;;;7.20;1.90;;;;;;;;;;5006736;28;20210;-70
2023/06/02 09:24:41;;;;;;;7.70;1.73;;;;;;;;;;5010260;28;20645;-70
2023/06/02 09:27:13;;;;;;;11.23;2.95;;;;;;;;;;4995946;28;20194;-70
2023/06/02 09:29:39;;;;;;;5.25;2.25;;;;;;;;;;4995891;28;20182;-70
2023/06/02 09:32:10;;;;;;;8.90;2.78;;;;;;;;;;4994217;28;20717;-70
2023/06/02 09:34:36;;;;;;;10.48;2.47;;;;;;;;;;5013574;28;20620;-69
2023/06/02 09:37:12;;;;;;;8.00;2.03;;;;;;;;;;5008727;28;20194;-70
2023/06/02 09:39:38;;;;;;;8.27;1.95;;;;;;;;;;5011269;28;20210;-70
2023/06/02 09:42:04;;;;;;;7.97;1.95;;;;;;;;;;5012742;28;20214;-70
2023/06/02 09:44:29;;;;;;;7.70;1.58;;;;;;;;;;5006565;28;20642;-69
2023/06/02 09:46:54;;;;;;;8.52;2.17;;;;;;;;;;4994994;28;20270;-70
2023/06/02 09:49:20;;;;;;;7.68;2.17;;;;;;;;;;5011163;28;20213;-70
2023/06/02 09:51:45;;;;;;;8.00;2.35;;;;;;;;;;5012768;28;20253;-70
2023/06/02 09:54:10;;;;;;;6.78;2.00;;;;;;;;;;5013927;28;20191;-70
2023/06/02 09:56:37;;;;;;;10.02;2.42;;;;;;;;;;5009988;28;20179;-70
2023/06/02 09:59:04;;;;;;;9.25;2.42;;;;;;;;;;4993513;28;20179;-70
2023/06/02 10:01:30;;;;;;;8.43;1.77;;;;;;;;;;4993603;28;20225;-71
2023/06/02 10:03:55;;;;;;;13.35;2.28;;;;;;;;;;4992031;28;20588;-69
2023/06/02 10:06:34;;;;;;;8.87;2.47;;;;;;;;;;5009493;28;20270;-69
2023/06/02 10:09:00;;;;;;;7.13;2.40;;;;;;;;;;4991187;28;20432;-69
2023/06/02 10:11:31;;;;;;;5.88;1.90;;;;;;;;;;5010224;28;20694;-68
2023/06/02 10:13:56;;;;;;;7.68;2.45;;;;;;;;;;5010476;28;20187;-69
2023/06/02 10:16:24;;;;;;;6.23;2.10;;;;;;;;;;5012858;28;20170;-69
2023/06/02 10:18:55;;;;;;;8.80;1.90;;;;;;;;;;5009826;28;20433;-69
2023/06/02 10:21:39;;;;;;;6.47;2.00;;;;;;;;;;5009774;28;20194;-69
2023/06/02 10:24:16;;;;;;;7.07;2.03;;;;;;;;;;4995311;28;20544;-68
2023/06/02 10:26:54;;;;;;;6.82;1.90;;;;;;;;;;5008997;28;20179;-69
2023/06/02 10:29:19;;;;;;;7.03;2.13;;;;;;;;;;5011636;28;20178;-69
2023/06/02 10:31:45;;;;;;;10.52;2.30;;;;;;;;;;5010119;28;20203;-69
2023/06/02 10:34:30;;;;;;;6.25;2.28;;;;;;;;;;5013261;28;20206;-70
2023/06/02 10:37:05;;;;;;;4.93;2.10;;;;;;;;;;5008369;28;20260;-70
2023/06/02 10:39:40;;;;;;;6.80;2.20;;;;;;;;;;5010442;28;20219;-69
2023/06/02 10:42:06;;;;;;;5.72;1.98;;;;;;;;;;5007461;28;20194;-69
2023/06/02 10:44:31;;;;;;;5.15;2.85;;;;;;;;;;5007176;28;20179;-70
2023/06/02 10:47:15;;;;;;;6.68;2.45;;;;;;;;;;5004209;28;20178;-70
2023/06/02 10:50:00;;;;;;;7.85;2.42;;;;;;;;;;4989499;28;20253;-69
2023/06/02 10:52:26;;;;;;;4.25;2.20;;;;;;;;;;5008202;28;20205;-69
2023/06/02 10:55:06;;;;;;;5.13;2.25;;;;;;;;;;4993080;28;20179;-69
2023/06/02 10:57:50;;;;;;;7.82;2.10;;;;;;;;;;5011013;28;20202;-69
2023/06/02 11:00:35;;;;;;;8.00;2.53;;;;;;;;;;5008935;28;20270;-69
2023/06/02 11:03:15;;;;;;;6.05;1.83;;;;;;;;;;5010038;28;20275;-69
2023/06/02 11:05:41;;;;;;;6.43;2.28;;;;;;;;;;5010819;28;20170;-69
2023/06/02 11:08:09;;;;;;;8.35;2.38;;;;;;;;;;5012575;28;20175;-69
2023/06/02 11:10:41;;;;;;;8.73;2.85;;;;;;;;;;5009392;28;20179;-69
2023/06/02 11:13:07;;;;;;;11.30;2.67;;;;;;;;;;4999856;28;20222;-69
2023/06/02 11:15:32;;;;;;;9.23;2.10;;;;;;;;;;5007844;28;20270;-69
2023/06/02 11:17:57;;;;;;;7.72;2.50;;;;;;;;;;5012739;28;20615;-69
2023/06/02 11:20:31;;;;;;;6.45;2.53;;;;;;;;;;5011345;28;20175;-70
2023/06/02 11:23:02;;;;;;;7.15;2.00;;;;;;;;;;5009879;28;20583;-69
2023/06/02 11:25:27;;;;;;;7.75;3.08;;;;;;;;;;5005752;28;20371;-71
2023/06/02 11:27:52;;;;;;;5.40;2.07;;;;;;;;;;5010334;28;20186;-68
2023/06/02 11:30:18;;;;;;;5.78;2.05;;;;;;;;;;5009775;28;20435;-68
2023/06/02 11:32:45;;;;;;;10.13;2.50;;;;;;;;;;4994249;28;20194;-69
2023/06/02 11:35:10;;;;;;;6.70;2.13;;;;;;;;;;5007204;28;20190;-69
2023/06/02 11:37:40;;;;;;;5.07;2.25;;;;;;;;;;5010682;28;20198;-70
2023/06/02 11:40:06;;;;;;;12.10;3.00;;;;;;;;;;5009516;28;20241;-69
2023/06/02 11:42:34;;;;;;;4.53;2.05;;;;;;;;;;5012001;28;20613;-69
2023/06/02 11:44:59;;;;;;;6.53;2.58;;;;;;;;;;5006817;28;20207;-69
2023/06/02 11:47:24;;;;;;;7.43;2.47;;;;;;;;;;5010520;28;20699;-68
2023/06/02 11:49:51;;;;;;;5.43;1.98;;;;;;;;;;5008451;28;20231;-69
2023/06/02 11:52:16;;;;;;;7.97;2.43;;;;;;;;;;5010533;28;20297;-69
2023/06/02 11:55:08;;;;;;;6.95;2.45;;;;;;;;;;5006707;28;20523;-69
2023/06/02 11:57:33;;;;;;;9.73;2.38;;;;;;;;;;4994977;28;20210;-69
2023/06/02 12:00:06;;;;;;;5.75;2.55;;;;;;;;;;5006499;28;20574;-69
2023/06/02 12:02:31;;;;;;;6.30;2.20;;;;;;;;;;5044131;22;20297;-75
2023/06/02 12:04:56;;;;;;;8.80;2.75;;;;;;;;;;5071272;28;20204;-76
2023/06/02 12:07:26;;;;;;;6.13;2.37;;;;;;;;;;5070281;28;20650;-76
2023/06/02 12:09:51;;;;;;;5.70;2.65;;;;;;;;;;5071421;28;20498;-74
2023/06/02 12:12:17;;;;;;;9.55;2.72;;;;;;;;;;5066824;28;20235;-75
2023/06/02 12:14:42;;;;;;;12.93;2.88;;;;;;;;;;5058519;28;20643;-75
2023/06/02 12:17:07;;;;;;;9.98;3.22;;;;;;;;;;5068692;28;20200;-75
2023/06/02 12:19:33;;;;;;;9.30;3.03;;;;;;;;;;5068500;28;20168;-75
2023/06/02 12:22:05;;;;;;;6.18;2.50;;;;;;;;;;5064410;28;20209;-75
2023/06/02 12:24:36;;;;;;;9.00;2.38;;;;;;;;;;5070928;28;20182;-75
2023/06/02 12:27:01;;;;;;;9.55;2.72;;;;;;;;;;5064091;28;20677;-76
2023/06/02 12:29:27;;;;;;;9.68;3.47;;;;;;;;;;5062163;28;20188;-75
2023/06/02 12:31:59;;;;;;;7.32;2.22;;;;;;;;;;5066831;28;20195;-75
2023/06/02 12:34:24;;;;;;;6.72;2.70;;;;;;;;;;5069516;28;20183;-75
2023/06/02 12:36:50;;;;;;;10.95;2.92;;;;;;;;;;5064766;28;20284;-75
2023/06/02 12:39:16;;;;;;;7.22;2.28;;;;;;;;;;5064561;28;20180;-76
2023/06/02 12:41:41;;;;;;;6.67;2.97;;;;;;;;;;5065922;28;20619;-75
2023/06/02 12:44:06;;;;;;;5.15;2.45;;;;;;;;;;5067095;28;20882;-75
2023/06/02 12:46:31;;;;;;;8.47;2.47;;;;;;;;;;5063733;28;20173;-75
2023/06/02 12:49:00;;;;;;;6.77;2.80;;;;;;;;;;5067608;28;20421;-75
2023/06/02 12:51:25;;;;;;;8.57;2.85;;;;;;;;;;5066388;28;20421;-75
2023/06/02 12:53:51;;;;;;;5.15;2.60;;;;;;;;;;5068229;28;20173;-75
2023/06/02 12:56:16;;;;;;;7.68;2.20;;;;;;;;;;5067410;28;20173;-76
2023/06/02 12:58:41;;;;;;;8.63;2.30;;;;;;;;;;5072551;28;20200;-75
2023/06/02 13:01:07;;;;;;;10.80;2.90;;;;;;;;;;5067569;28;20180;-75
2023/06/02 13:03:32;;;;;;;5.68;2.40;;;;;;;;;;5069704;28;20687;-75
2023/06/02 13:05:57;;;;;;;6.50;2.40;;;;;;;;;;5066377;28;20671;-75
2023/06/02 13:08:23;;;;;;;5.53;2.33;;;;;;;;;;5071027;28;20176;-75
2023/06/02 13:10:49;;;;;;;7.35;2.33;;;;;;;;;;5070526;28;20212;-75
2023/06/02 13:13:14;;;;;;;6.13;3.05;;;;;;;;;;5067213;28;20201;-75
2023/06/02 13:15:39;;;;;;;6.35;2.40;;;;;;;;;;5066758;28;20184;-75
2023/06/02 13:18:05;;;;;;;6.10;2.83;;;;;;;;;;5068551;28;20662;-75
2023/06/02 13:20:30;;;;;;;5.37;2.47;;;;;;;;;;5065833;28;20412;-76
2023/06/02 13:22:55;;;;;;;7.07;2.67;;;;;;;;;;5071481;28;20438;-76
2023/06/02 13:25:21;;;;;;;5.68;2.33;;;;;;;;;;5073100;28;20510;-75
2023/06/02 13:27:46;;;;;;;5.70;2.60;;;;;;;;;;5068238;28;20181;-75
2023/06/02 13:30:13;;;;;;;8.17;2.83;;;;;;;;;;5065358;28;20798;-75
2023/06/02 13:32:38;;;;;;;7.38;2.88;;;;;;;;;;5070501;28;20863;-75
2023/06/02 13:35:03;;;;;;;9.73;2.93;;;;;;;;;;5074178;28;20177;-75
2023/06/02 13:37:28;;;;;;;7.70;2.75;;;;;;;;;;5068008;28;20462;-75
2023/06/02 13:39:54;;;;;;;7.10;2.23;;;;;;;;;;5071391;28;20661;-76
2023/06/02 13:42:20;;;;;;;7.80;3.15;;;;;;;;;;5065527;28;20503;-75
2023/06/02 13:44:45;;;;;;;5.57;2.95;;;;;;;;;;5071646;28;20181;-75
2023/06/02 13:47:10;;;;;;;6.97;2.53;;;;;;;;;;5075803;28;20176;-76
2023/06/02 13:49:36;;;;;;;6.25;3.83;;;;;;;;;;5070917;28;20184;-75
2023/06/02 13:52:01;;;;;;;8.93;3.10;;;;;;;;;;5067337;28;20205;-75
2023/06/02 13:54:26;;;;;;;5.70;2.90;;;;;;;;;;5072288;28;20414;-74
2023/06/02 13:56:51;;;;;;;9.23;3.30;;;;;;;;;;5068458;28;20457;-74
2023/06/02 13:59:18;;;;;;;4.63;1.95;;;;;;;;;;5071611;28;20935;-74
2023/06/02 14:01:43;;;;;;;9.73;2.58;;;;;;;;;;5067890;28;20200;-74
2023/06/02 14:04:09;;;;;;;10.38;3.05;;;;;;;;;;5067597;28;20177;-75
2023/06/02 14:06:35;;;;;;;5.40;2.22;;;;;;;;;;5068158;28;20207;-74
2023/06/02 14:09:04;;;;;;;9.07;3.10;;;;;;;;;;5071498;28;20666;-74
2023/06/02 14:11:29;;;;;;;4.80;2.15;;;;;;;;;;5065653;28;20682;-75
2023/06/02 14:13:55;;;;;;;6.53;2.75;;;;;;;;;;5066923;28;20181;-75
2023/06/02 14:16:20;;;;;;;9.07;2.85;;;;;;;;;;5068289;28;20227;-75
2023/06/02 14:18:46;;;;;;;8.65;2.75;;;;;;;;;;5066108;28;20210;-75
2023/06/02 14:21:11;;;;;;;7.38;2.33;;;;;;;;;;5070623;28;20276;-75
2023/06/02 14:23:36;;;;;;;8.63;2.33;;;;;;;;;;5072934;28;20546;-76
2023/06/02 14:26:01;;;;;;;10.63;2.53;;;;;;;;;;5068856;28;20456;-75
2023/06/02 14:28:27;;;;;;;9.60;2.28;;;;;;;;;;5066697;28;20544;-76
2023/06/02 14:30:52;;;;;;;7.63;2.43;;;;;;;;;;5066888;28;20199;-75
2023/06/02 14:33:17;;;;;;;6.38;2.28;;;;;;;;;;5069925;28;20457;-75
2023/06/02 14:35:42;;;;;;;6.05;2.40;;;;;;;;;;5068442;28;20215;-73
2023/06/02 14:38:08;;;;;;;9.50;2.20;;;;;;;;;;5065379;28;20207;-76